sensor_id;sensor_type;location;lat;lon;timestamp;pressure;altitude;pressure_sealevel;temperature;humidity
29197;BME280;62796;42.654;23.316;2023-03-21T00:00:32;94399.94;;;14.41;36.53
29197;BME280;62796;42.654;23.316;2023-03-21T00:02:58;94394.88;;;14.39;36.69
29197;BME280;62796;42.654;23.316;2023-03-21T00:05:24;94392.63;;;14.38;36.95
29197;BME280;62796;42.654;23.316;2023-03-21T00:07:49;94395.91;;;14.31;36.82
29197;BME280;62796;42.654;23.316;2023-03-21T00:10:15;94399.03;;;14.11;37.67
29197;BME280;62796;42.654;23.316;2023-03-21T00:12:40;94393.25;;;14.03;37.56
29197;BME280;62796;42.654;23.316;2023-03-21T00:15:08;94402.59;;;14.06;37.59
29197;BME280;62796;42.654;23.316;2023-03-21T00:17:34;94389.41;;;14.12;37.80
29197;BME280;62796;42.654;23.316;2023-03-21T00:20:02;94392.44;;;14.14;37.76
29197;BME280;62796;42.654;23.316;2023-03-21T00:22:33;94389.16;;;14.10;37.95
29197;BME280;62796;42.654;23.316;2023-03-21T00:24:59;94388.38;;;14.15;38.07
29197;BME280;62796;42.654;23.316;2023-03-21T00:27:25;94386.63;;;14.12;38.14
29197;BME280;62796;42.654;23.316;2023-03-21T00:29:51;94393.97;;;14.15;38.43
29197;BME280;62796;42.654;23.316;2023-03-21T00:32:18;94399.56;;;14.09;38.63
29197;BME280;62796;42.654;23.316;2023-03-21T00:34:44;94398.78;;;14.09;38.73
29197;BME280;62796;42.654;23.316;2023-03-21T00:37:10;94401.84;;;14.05;38.74
29197;BME280;62796;42.654;23.316;2023-03-21T00:39:41;94401.59;;;14.03;38.88
29197;BME280;62796;42.654;23.316;2023-03-21T00:42:08;94394.00;;;13.98;39.07
29197;BME280;62796;42.654;23.316;2023-03-21T00:44:34;94396.53;;;14.02;39.03
29197;BME280;62796;42.654;23.316;2023-03-21T00:47:04;94390.22;;;13.96;38.89
29197;BME280;62796;42.654;23.316;2023-03-21T00:49:29;94395.03;;;13.95;39.06
29197;BME280;62796;42.654;23.316;2023-03-21T00:52:04;94395.78;;;13.96;39.07
29197;BME280;62796;42.654;23.316;2023-03-21T00:54:31;94386.97;;;13.92;39.13
29197;BME280;62796;42.654;23.316;2023-03-21T00:56:57;94382.16;;;13.86;39.24
29197;BME280;62796;42.654;23.316;2023-03-21T00:59:22;94373.78;;;13.86;39.05
29197;BME280;62796;42.654;23.316;2023-03-21T01:01:48;94392.50;;;13.97;39.15
29197;BME280;62796;42.654;23.316;2023-03-21T01:04:13;94388.22;;;13.91;39.04
29197;BME280;62796;42.654;23.316;2023-03-21T01:06:42;94388.72;;;13.89;39.23
29197;BME280;62796;42.654;23.316;2023-03-21T01:09:16;94395.03;;;13.90;39.39
29197;BME280;62796;42.654;23.316;2023-03-21T01:11:41;94383.69;;;13.82;39.41
29197;BME280;62796;42.654;23.316;2023-03-21T01:14:08;94385.97;;;13.78;39.26
29197;BME280;62796;42.654;23.316;2023-03-21T01:16:34;94386.97;;;13.80;39.59
29197;BME280;62796;42.654;23.316;2023-03-21T01:19:00;94380.19;;;13.70;39.97
29197;BME280;62796;42.654;23.316;2023-03-21T01:21:26;94379.16;;;13.68;40.03
29197;BME280;62796;42.654;23.316;2023-03-21T01:23:51;94373.34;;;13.66;39.97
29197;BME280;62796;42.654;23.316;2023-03-21T01:26:17;94382.44;;;13.66;40.31
29197;BME280;62796;42.654;23.316;2023-03-21T01:28:43;94381.44;;;13.64;40.04
29197;BME280;62796;42.654;23.316;2023-03-21T01:31:11;94388.78;;;13.61;40.37
29197;BME280;62796;42.654;23.316;2023-03-21T01:33:37;94385.25;;;13.61;40.62
29197;BME280;62796;42.654;23.316;2023-03-21T01:36:03;94383.22;;;13.50;40.46
29197;BME280;62796;42.654;23.316;2023-03-21T01:38:29;94391.34;;;13.48;40.34
29197;BME280;62796;42.654;23.316;2023-03-21T01:40:55;94389.56;;;13.45;40.61
29197;BME280;62796;42.654;23.316;2023-03-21T01:43:29;94382.25;;;13.42;40.63
29197;BME280;62796;42.654;23.316;2023-03-21T01:51:26;94386.28;;;13.30;41.11
29197;BME280;62796;42.654;23.316;2023-03-21T01:53:53;94385.06;;;13.20;40.75
29197;BME280;62796;42.654;23.316;2023-03-21T01:56:27;94383.78;;;13.10;40.31
29197;BME280;62796;42.654;23.316;2023-03-21T01:58:58;94374.41;;;13.07;40.56
29197;BME280;62796;42.654;23.316;2023-03-21T02:01:29;94375.44;;;13.15;41.16
29197;BME280;62796;42.654;23.316;2023-03-21T02:04:00;94384.28;;;13.14;40.79
29197;BME280;62796;42.654;23.316;2023-03-21T02:06:48;94384.03;;;13.12;40.67
29197;BME280;62796;42.654;23.316;2023-03-21T02:09:18;94384.53;;;13.10;40.91
29197;BME280;62796;42.654;23.316;2023-03-21T02:11:46;94374.91;;;13.00;40.53
29197;BME280;62796;42.654;23.316;2023-03-21T02:14:14;94359.22;;;12.86;40.83
29197;BME280;62796;42.654;23.316;2023-03-21T02:27:38;94360.97;;;12.61;40.92
29197;BME280;62796;42.654;23.316;2023-03-21T02:30:37;94365.03;;;12.71;40.77
29197;BME280;62796;42.654;23.316;2023-03-21T02:35:53;94369.34;;;12.89;41.51
29197;BME280;62796;42.654;23.316;2023-03-21T02:44:34;94361.00;;;12.95;40.96
29197;BME280;62796;42.654;23.316;2023-03-21T02:47:30;94361.50;;;12.88;41.16
29197;BME280;62796;42.654;23.316;2023-03-21T02:50:11;94358.47;;;12.86;41.59
29197;BME280;62796;42.654;23.316;2023-03-21T02:52:41;94351.38;;;12.85;41.22
29197;BME280;62796;42.654;23.316;2023-03-21T02:55:14;94352.13;;;12.85;41.74
29197;BME280;62796;42.654;23.316;2023-03-21T02:57:41;94348.34;;;12.83;41.66
29197;BME280;62796;42.654;23.316;2023-03-21T03:00:10;94355.16;;;12.82;41.90
29197;BME280;62796;42.654;23.316;2023-03-21T03:02:37;94358.22;;;12.84;41.69
29197;BME280;62796;42.654;23.316;2023-03-21T03:05:15;94357.94;;;12.82;41.91
29197;BME280;62796;42.654;23.316;2023-03-21T03:20:48;94373.59;;;12.51;42.26
29197;BME280;62796;42.654;23.316;2023-03-21T03:23:27;94369.78;;;12.49;42.23
29197;BME280;62796;42.654;23.316;2023-03-21T03:26:03;94367.50;;;12.47;42.41
29197;BME280;62796;42.654;23.316;2023-03-21T03:28:34;94367.50;;;12.47;42.51
29197;BME280;62796;42.654;23.316;2023-03-21T03:31:02;94366.97;;;12.43;42.26
29197;BME280;62796;42.654;23.316;2023-03-21T03:33:29;94374.81;;;12.39;42.49
29197;BME280;62796;42.654;23.316;2023-03-21T03:35:58;94368.50;;;12.33;42.60
29197;BME280;62796;42.654;23.316;2023-03-21T03:38:24;94373.53;;;12.29;42.87
29197;BME280;62796;42.654;23.316;2023-03-21T03:40:55;94365.19;;;12.24;42.50
29197;BME280;62796;42.654;23.316;2023-03-21T03:43:25;94370.97;;;12.20;42.39
29197;BME280;62796;42.654;23.316;2023-03-21T03:46:00;94375.50;;;12.17;42.06
29197;BME280;62796;42.654;23.316;2023-03-21T03:48:36;94375.72;;;12.03;42.18
29197;BME280;62796;42.654;23.316;2023-03-21T03:51:15;94368.31;;;11.89;42.60
29197;BME280;62796;42.654;23.316;2023-03-21T03:56:16;94355.13;;;11.73;42.64
29197;BME280;62796;42.654;23.316;2023-03-21T03:58:41;94358.69;;;11.79;42.64
29197;BME280;62796;42.654;23.316;2023-03-21T04:01:07;94360.75;;;11.95;42.98
29197;BME280;62796;42.654;23.316;2023-03-21T04:03:34;94360.03;;;12.00;42.53
29197;BME280;62796;42.654;23.316;2023-03-21T04:06:01;94366.63;;;12.02;42.45
29197;BME280;62796;42.654;23.316;2023-03-21T04:08:28;94361.81;;;12.03;42.53
29197;BME280;62796;42.654;23.316;2023-03-21T04:10:54;94366.88;;;12.10;42.67
29197;BME280;62796;42.654;23.316;2023-03-21T04:13:20;94351.97;;;12.02;43.01
29197;BME280;62796;42.654;23.316;2023-03-21T04:15:45;94364.63;;;12.08;42.87
29197;BME280;62796;42.654;23.316;2023-03-21T04:18:11;94365.09;;;12.07;42.90
29197;BME280;62796;42.654;23.316;2023-03-21T04:20:36;94353.00;;;12.04;42.86
29197;BME280;62796;42.654;23.316;2023-03-21T04:23:02;94360.31;;;12.02;43.09
29197;BME280;62796;42.654;23.316;2023-03-21T04:25:27;94357.53;;;12.07;43.40
29197;BME280;62796;42.654;23.316;2023-03-21T04:27:53;94359.31;;;12.05;43.44
29197;BME280;62796;42.654;23.316;2023-03-21T04:30:20;94351.72;;;12.00;43.66
29197;BME280;62796;42.654;23.316;2023-03-21T04:32:49;94355.25;;;12.00;43.53
29197;BME280;62796;42.654;23.316;2023-03-21T04:35:18;94352.94;;;11.93;43.86
29197;BME280;62796;42.654;23.316;2023-03-21T04:37:44;94356.50;;;11.94;43.51
29197;BME280;62796;42.654;23.316;2023-03-21T04:40:10;94358.72;;;11.90;43.74
29197;BME280;62796;42.654;23.316;2023-03-21T04:42:36;94362.03;;;11.88;44.10
29197;BME280;62796;42.654;23.316;2023-03-21T04:45:02;94366.81;;;11.88;44.06
29197;BME280;62796;42.654;23.316;2023-03-21T04:47:28;94366.03;;;11.87;44.27
29197;BME280;62796;42.654;23.316;2023-03-21T04:49:54;94367.81;;;11.85;44.13
29197;BME280;62796;42.654;23.316;2023-03-21T04:52:21;94369.25;;;11.75;44.56
29197;BME280;62796;42.654;23.316;2023-03-21T04:54:47;94362.94;;;11.74;43.99
29197;BME280;62796;42.654;23.316;2023-03-21T04:57:12;94367.75;;;11.74;43.65
29197;BME280;62796;42.654;23.316;2023-03-21T04:59:38;94361.69;;;11.70;43.86
29197;BME280;62796;42.654;23.316;2023-03-21T05:02:03;94369.53;;;11.77;44.17
29197;BME280;62796;42.654;23.316;2023-03-21T05:04:29;94367.03;;;11.84;44.14
29197;BME280;62796;42.654;23.316;2023-03-21T05:06:55;94367.81;;;11.85;43.97
29197;BME280;62796;42.654;23.316;2023-03-21T05:09:21;94375.13;;;11.82;43.99
29197;BME280;62796;42.654;23.316;2023-03-21T05:11:47;94371.06;;;11.83;43.88
29197;BME280;62796;42.654;23.316;2023-03-21T05:14:19;94374.59;;;11.84;44.11
29197;BME280;62796;42.654;23.316;2023-03-21T05:16:45;94383.47;;;11.88;44.25
29197;BME280;62796;42.654;23.316;2023-03-21T05:19:18;94380.19;;;11.95;44.38
29197;BME280;62796;42.654;23.316;2023-03-21T05:21:45;94380.25;;;12.00;44.11
29197;BME280;62796;42.654;23.316;2023-03-21T05:24:16;94385.03;;;12.00;44.14
29197;BME280;62796;42.654;23.316;2023-03-21T05:26:43;94386.53;;;12.01;43.79
29197;BME280;62796;42.654;23.316;2023-03-21T05:29:15;94387.56;;;12.03;44.21
29197;BME280;62796;42.654;23.316;2023-03-21T05:31:41;94384.03;;;12.03;43.82
29197;BME280;62796;42.654;23.316;2023-03-21T05:34:06;94383.53;;;12.10;43.58
29197;BME280;62796;42.654;23.316;2023-03-21T05:36:31;94381.81;;;12.18;43.26
29197;BME280;62796;42.654;23.316;2023-03-21T05:39:00;94391.66;;;12.19;43.62
29197;BME280;62796;42.654;23.316;2023-03-21T05:41:26;94384.06;;;12.14;43.87
29197;BME280;62796;42.654;23.316;2023-03-21T05:43:52;94388.16;;;12.24;44.05
29197;BME280;62796;42.654;23.316;2023-03-21T05:46:17;94375.03;;;12.30;43.79
29197;BME280;62796;42.654;23.316;2023-03-21T05:48:42;94378.09;;;12.43;43.32
29197;BME280;62796;42.654;23.316;2023-03-21T05:51:08;94370.53;;;12.49;43.52
29197;BME280;62796;42.654;23.316;2023-03-21T05:53:33;94360.94;;;12.50;43.49
29197;BME280;62796;42.654;23.316;2023-03-21T05:55:59;94369.31;;;12.67;43.58
29197;BME280;62796;42.654;23.316;2023-03-21T05:58:24;94357.47;;;12.77;43.68
29197;BME280;62796;42.654;23.316;2023-03-21T06:00:50;94358.47;;;12.91;43.50
29197;BME280;62796;42.654;23.316;2023-03-21T06:03:15;94354.94;;;13.02;43.42
29197;BME280;62796;42.654;23.316;2023-03-21T06:05:41;94352.66;;;13.11;43.57
29197;BME280;62796;42.654;23.316;2023-03-21T06:08:06;94356.22;;;13.23;43.90
29197;BME280;62796;42.654;23.316;2023-03-21T06:10:32;94351.91;;;13.33;43.62
29197;BME280;62796;42.654;23.316;2023-03-21T06:12:57;94348.09;;;13.36;43.18
29197;BME280;62796;42.654;23.316;2023-03-21T06:15:23;94354.38;;;13.53;43.30
29197;BME280;62796;42.654;23.316;2023-03-21T06:17:49;94348.34;;;13.55;43.24
29197;BME280;62796;42.654;23.316;2023-03-21T06:20:15;94340.19;;;13.62;42.85
29197;BME280;62796;42.654;23.316;2023-03-21T06:22:40;94343.72;;;13.79;42.76
29197;BME280;62796;42.654;23.316;2023-03-21T06:25:06;94346.97;;;13.83;40.86
29197;BME280;62796;42.654;23.316;2023-03-21T06:27:33;94339.88;;;13.88;40.87
29197;BME280;62796;42.654;23.316;2023-03-21T06:29:59;94331.78;;;13.90;40.86
29197;BME280;62796;42.654;23.316;2023-03-21T06:32:25;94341.06;;;14.04;40.58
29197;BME280;62796;42.654;23.316;2023-03-21T06:34:51;94336.72;;;14.14;40.04
29197;BME280;62796;42.654;23.316;2023-03-21T06:37:17;94345.31;;;14.21;39.86
29197;BME280;62796;42.654;23.316;2023-03-21T06:39:42;94343.50;;;14.35;39.50
29197;BME280;62796;42.654;23.316;2023-03-21T06:42:08;94350.56;;;14.42;39.68
29197;BME280;62796;42.654;23.316;2023-03-21T06:44:33;94356.31;;;14.49;39.46
29197;BME280;62796;42.654;23.316;2023-03-21T06:46:59;94356.81;;;14.53;39.63
29197;BME280;62796;42.654;23.316;2023-03-21T06:49:24;94353.50;;;14.60;39.43
29197;BME280;62796;42.654;23.316;2023-03-21T06:51:50;94361.56;;;14.69;39.48
29197;BME280;62796;42.654;23.316;2023-03-21T06:54:16;94356.13;;;14.82;39.06
29197;BME280;62796;42.654;23.316;2023-03-21T06:56:43;94366.41;;;14.99;38.57
29197;BME280;62796;42.654;23.316;2023-03-21T06:59:08;94365.06;;;15.11;37.97
29197;BME280;62796;42.654;23.316;2023-03-21T07:01:34;94362.97;;;15.17;37.16
29197;BME280;62796;42.654;23.316;2023-03-21T07:04:00;94374.53;;;15.32;36.55
29197;BME280;62796;42.654;23.316;2023-03-21T07:06:26;94358.72;;;15.40;36.84
29197;BME280;62796;42.654;23.316;2023-03-21T07:08:53;94374.22;;;15.65;36.21
29197;BME280;62796;42.654;23.316;2023-03-21T07:11:20;94369.81;;;15.75;35.56
29197;BME280;62796;42.654;23.316;2023-03-21T07:13:46;94363.13;;;15.84;35.15
29197;BME280;62796;42.654;23.316;2023-03-21T07:16:13;94372.38;;;15.97;35.37
29197;BME280;62796;42.654;23.316;2023-03-21T07:18:39;94370.22;;;15.61;35.50
29197;BME280;62796;42.654;23.316;2023-03-21T07:21:05;94372.94;;;15.66;35.75
29197;BME280;62796;42.654;23.316;2023-03-21T07:23:31;94384.47;;;15.81;35.49
29197;BME280;62796;42.654;23.316;2023-03-21T07:25:56;94373.66;;;15.96;34.58
29197;BME280;62796;42.654;23.316;2023-03-21T07:28:22;94369.47;;;16.09;34.23
29197;BME280;62796;42.654;23.316;2023-03-21T07:30:54;94373.72;;;16.15;34.01
29197;BME280;62796;42.654;23.316;2023-03-21T07:33:20;94378.25;;;16.18;34.05
29197;BME280;62796;42.654;23.316;2023-03-21T07:35:50;94368.25;;;16.23;33.70
29197;BME280;62796;42.654;23.316;2023-03-21T07:38:16;94364.41;;;16.26;33.29
29197;BME280;62796;42.654;23.316;2023-03-21T07:40:43;94357.41;;;16.38;32.93
29197;BME280;62796;42.654;23.316;2023-03-21T07:43:08;94360.41;;;16.40;32.95
29197;BME280;62796;42.654;23.316;2023-03-21T07:45:34;94348.19;;;16.43;32.86
29197;BME280;62796;42.654;23.316;2023-03-21T07:48:00;94362.75;;;16.60;32.87
29197;BME280;62796;42.654;23.316;2023-03-21T07:50:25;94362.19;;;16.62;32.75
29197;BME280;62796;42.654;23.316;2023-03-21T07:52:50;94366.81;;;16.59;32.61
29197;BME280;62796;42.654;23.316;2023-03-21T07:55:16;94382.75;;;16.64;32.64
29197;BME280;62796;42.654;23.316;2023-03-21T07:57:42;94376.03;;;16.54;32.68
29197;BME280;62796;42.654;23.316;2023-03-21T08:00:08;94371.78;;;16.47;32.86
29197;BME280;62796;42.654;23.316;2023-03-21T08:02:35;94374.50;;;16.53;32.91
29197;BME280;62796;42.654;23.316;2023-03-21T08:05:00;94371.94;;;16.55;32.83
29197;BME280;62796;42.654;23.316;2023-03-21T08:07:26;94373.25;;;16.54;32.81
29197;BME280;62796;42.654;23.316;2023-03-21T08:09:51;94371.66;;;16.58;32.86
29197;BME280;62796;42.654;23.316;2023-03-21T08:12:17;94378.47;;;16.63;32.83
29197;BME280;62796;42.654;23.316;2023-03-21T08:14:42;94367.72;;;16.67;32.75
29197;BME280;62796;42.654;23.316;2023-03-21T08:17:08;94373.16;;;16.78;32.47
29197;BME280;62796;42.654;23.316;2023-03-21T08:19:34;94365.75;;;16.81;32.67
29197;BME280;62796;42.654;23.316;2023-03-21T08:22:01;94363.19;;;16.83;32.88
29197;BME280;62796;42.654;23.316;2023-03-21T08:24:29;94366.94;;;16.85;32.59
29197;BME280;62796;42.654;23.316;2023-03-21T08:26:54;94359.91;;;16.97;32.27
29197;BME280;62796;42.654;23.316;2023-03-21T08:29:20;94351.31;;;16.95;32.38
29197;BME280;62796;42.654;23.316;2023-03-21T08:31:46;94354.97;;;17.03;32.65
29197;BME280;62796;42.654;23.316;2023-03-21T08:34:11;94353.63;;;17.10;32.45
29197;BME280;62796;42.654;23.316;2023-03-21T08:36:38;94357.38;;;17.12;31.96
29197;BME280;62796;42.654;23.316;2023-03-21T08:39:04;94368.56;;;17.12;32.05
29197;BME280;62796;42.654;23.316;2023-03-21T08:41:33;94356.63;;;17.12;31.51
29197;BME280;62796;42.654;23.316;2023-03-21T08:43:59;94357.44;;;17.26;31.47
29197;BME280;62796;42.654;23.316;2023-03-21T08:46:25;94360.66;;;17.30;31.46
29197;BME280;62796;42.654;23.316;2023-03-21T08:48:51;94358.97;;;17.40;31.47
29197;BME280;62796;42.654;23.316;2023-03-21T08:51:16;94346.50;;;17.41;31.31
29197;BME280;62796;42.654;23.316;2023-03-21T08:53:42;94358.38;;;17.47;31.30
29197;BME280;62796;42.654;23.316;2023-03-21T08:56:09;94357.13;;;17.61;30.41
29197;BME280;62796;42.654;23.316;2023-03-21T08:58:35;94350.66;;;17.66;30.27
29197;BME280;62796;42.654;23.316;2023-03-21T09:01:01;94349.38;;;17.67;30.68
29197;BME280;62796;42.654;23.316;2023-03-21T09:03:26;94353.16;;;17.69;30.90
29197;BME280;62796;42.654;23.316;2023-03-21T09:05:53;94347.84;;;17.66;30.74
29197;BME280;62796;42.654;23.316;2023-03-21T09:08:19;94347.66;;;17.77;30.81
29197;BME280;62796;42.654;23.316;2023-03-21T09:10:54;94346.56;;;17.80;30.92
29197;BME280;62796;42.654;23.316;2023-03-21T09:13:20;94334.94;;;17.76;31.07
29197;BME280;62796;42.654;23.316;2023-03-21T09:15:46;94328.81;;;17.78;30.82
29197;BME280;62796;42.654;23.316;2023-03-21T09:18:12;94332.16;;;17.89;29.77
29197;BME280;62796;42.654;23.316;2023-03-21T09:20:41;94329.56;;;17.91;29.83
29197;BME280;62796;42.654;23.316;2023-03-21T09:23:08;94319.84;;;17.92;29.75
29197;BME280;62796;42.654;23.316;2023-03-21T09:25:34;94320.31;;;17.96;29.89
29197;BME280;62796;42.654;23.316;2023-03-21T09:28:00;94313.63;;;17.99;29.88
29197;BME280;62796;42.654;23.316;2023-03-21T09:30:29;94314.81;;;18.04;30.11
29197;BME280;62796;42.654;23.316;2023-03-21T09:32:57;94320.50;;;18.11;29.79
29197;BME280;62796;42.654;23.316;2023-03-21T09:35:22;94317.91;;;18.13;29.98
29197;BME280;62796;42.654;23.316;2023-03-21T09:37:48;94319.53;;;18.22;29.59
29197;BME280;62796;42.654;23.316;2023-03-21T09:42:57;94294.78;;;18.47;28.90
29197;BME280;62796;42.654;23.316;2023-03-21T09:45:36;94298.03;;;18.38;28.95
29197;BME280;62796;42.654;23.316;2023-03-21T09:48:06;94293.53;;;18.35;29.16
29197;BME280;62796;42.654;23.316;2023-03-21T09:50:41;94298.69;;;18.44;29.46
29197;BME280;62796;42.654;23.316;2023-03-21T09:53:17;94303.53;;;18.56;28.90
29197;BME280;62796;42.654;23.316;2023-03-21T09:55:45;94300.16;;;18.71;28.38
29197;BME280;62796;42.654;23.316;2023-03-21T10:01:06;94298.59;;;18.83;27.81
29197;BME280;62796;42.654;23.316;2023-03-21T10:03:35;94284.81;;;18.72;28.06
29197;BME280;62796;42.654;23.316;2023-03-21T10:06:04;94287.38;;;18.83;28.18
29197;BME280;62796;42.654;23.316;2023-03-21T10:08:34;94287.56;;;18.85;28.92
29197;BME280;62796;42.654;23.316;2023-03-21T10:11:21;94290.75;;;19.02;27.88
29197;BME280;62796;42.654;23.316;2023-03-21T10:16:26;94276.84;;;19.17;28.08
29197;BME280;62796;42.654;23.316;2023-03-21T10:18:54;94268.56;;;19.53;27.28
29197;BME280;62796;42.654;23.316;2023-03-21T10:21:24;94264.28;;;19.88;26.80
29197;BME280;62796;42.654;23.316;2023-03-21T10:23:53;94269.66;;;20.14;26.17
29197;BME280;62796;42.654;23.316;2023-03-21T10:26:20;94254.84;;;20.50;25.59
29197;BME280;62796;42.654;23.316;2023-03-21T10:28:48;94262.44;;;20.77;24.58
29197;BME280;62796;42.654;23.316;2023-03-21T10:31:18;94264.66;;;20.71;24.72
29197;BME280;62796;42.654;23.316;2023-03-21T10:33:47;94259.28;;;20.96;24.14
29197;BME280;62796;42.654;23.316;2023-03-21T10:36:22;94265.16;;;21.13;23.74
29197;BME280;62796;42.654;23.316;2023-03-21T10:38:53;94268.16;;;21.30;23.51
29197;BME280;62796;42.654;23.316;2023-03-21T10:41:19;94270.06;;;21.35;23.41
29197;BME280;62796;42.654;23.316;2023-03-21T10:43:46;94276.06;;;21.39;23.42
29197;BME280;62796;42.654;23.316;2023-03-21T10:46:19;94271.53;;;21.36;23.69
29197;BME280;62796;42.654;23.316;2023-03-21T10:48:50;94263.66;;;21.27;23.72
29197;BME280;62796;42.654;23.316;2023-03-21T10:51:26;94272.25;;;21.07;24.13
29197;BME280;62796;42.654;23.316;2023-03-21T10:53:55;94270.06;;;21.20;24.00
29197;BME280;62796;42.654;23.316;2023-03-21T10:56:27;94254.84;;;21.31;24.02
29197;BME280;62796;42.654;23.316;2023-03-21T10:58:55;94249.38;;;21.18;24.42
29197;BME280;62796;42.654;23.316;2023-03-21T11:01:39;94239.47;;;20.58;24.80
29197;BME280;62796;42.654;23.316;2023-03-21T11:04:08;94238.56;;;20.20;25.48
29197;BME280;62796;42.654;23.316;2023-03-21T11:06:38;94242.06;;;20.33;25.83
29197;BME280;62796;42.654;23.316;2023-03-21T11:09:14;94244.47;;;20.37;25.68
29197;BME280;62796;42.654;23.316;2023-03-21T11:11:52;94241.25;;;20.25;25.55
29197;BME280;62796;42.654;23.316;2023-03-21T11:14:35;94245.22;;;20.37;25.03
29197;BME280;62796;42.654;23.316;2023-03-21T11:17:16;94234.78;;;20.46;24.75
29197;BME280;62796;42.654;23.316;2023-03-21T11:19:48;94237.28;;;20.72;24.26
29197;BME280;62796;42.654;23.316;2023-03-21T11:22:14;94229.81;;;20.89;24.24
29197;BME280;62796;42.654;23.316;2023-03-21T11:24:43;94227.75;;;20.90;23.62
29197;BME280;62796;42.654;23.316;2023-03-21T11:27:11;94224.56;;;21.01;23.73
29197;BME280;62796;42.654;23.316;2023-03-21T11:29:38;94220.09;;;21.21;23.07
29197;BME280;62796;42.654;23.316;2023-03-21T11:37:39;94201.31;;;21.31;22.97
29197;BME280;62796;42.654;23.316;2023-03-21T11:40:21;94203.19;;;21.43;22.71
29197;BME280;62796;42.654;23.316;2023-03-21T11:45:58;94185.16;;;21.39;22.38
29197;BME280;62796;42.654;23.316;2023-03-21T11:48:24;94197.56;;;21.36;22.65
29197;BME280;62796;42.654;23.316;2023-03-21T11:50:57;94198.13;;;21.27;22.46
29197;BME280;62796;42.654;23.316;2023-03-21T11:56:28;94189.69;;;21.19;22.65
29197;BME280;62796;42.654;23.316;2023-03-21T12:07:24;94176.72;;;21.24;22.71
29197;BME280;62796;42.654;23.316;2023-03-21T12:10:08;94175.75;;;21.06;23.38
29197;BME280;62796;42.654;23.316;2023-03-21T12:15:21;94174.06;;;21.03;23.63
29197;BME280;62796;42.654;23.316;2023-03-21T12:18:39;94162.81;;;21.03;23.68
29197;BME280;62796;42.654;23.316;2023-03-21T12:20:59;94167.13;;;21.04;23.54
29197;BME280;62796;42.654;23.316;2023-03-21T12:26:15;94165.44;;;21.01;22.62
29197;BME280;62796;42.654;23.316;2023-03-21T12:39:09;94149.66;;;20.83;22.31
29197;BME280;62796;42.654;23.316;2023-03-21T12:42:03;94154.72;;;20.77;23.24
29197;BME280;62796;42.654;23.316;2023-03-21T12:44:34;94142.28;;;20.34;24.01
29197;BME280;62796;42.654;23.316;2023-03-21T12:47:05;94147.84;;;20.19;24.03
29197;BME280;62796;42.654;23.316;2023-03-21T12:49:55;94150.16;;;20.28;23.82
29197;BME280;62796;42.654;23.316;2023-03-21T12:52:43;94140.81;;;20.33;23.28
29197;BME280;62796;42.654;23.316;2023-03-21T12:55:19;94138.53;;;20.32;23.52
29197;BME280;62796;42.654;23.316;2023-03-21T12:58:05;94126.16;;;20.35;23.63
29197;BME280;62796;42.654;23.316;2023-03-21T13:00:42;94124.84;;;20.28;23.25
29197;BME280;62796;42.654;23.316;2023-03-21T13:03:15;94119.44;;;20.30;23.01
29197;BME280;62796;42.654;23.316;2023-03-21T13:06:04;94120.13;;;20.23;23.57
29197;BME280;62796;42.654;23.316;2023-03-21T13:11:13;94112.19;;;19.99;24.37
29197;BME280;62796;42.654;23.316;2023-03-21T13:14:05;94109.53;;;19.94;24.45
29197;BME280;62796;42.654;23.316;2023-03-21T13:16:36;94116.44;;;19.85;24.77
29197;BME280;62796;42.654;23.316;2023-03-21T13:19:10;94112.53;;;19.88;24.65
29197;BME280;62796;42.654;23.316;2023-03-21T13:21:49;94116.28;;;19.98;24.44
29197;BME280;62796;42.654;23.316;2023-03-21T13:24:27;94112.19;;;19.99;24.25
29197;BME280;62796;42.654;23.316;2023-03-21T13:27:04;94115.91;;;19.94;24.78
29197;BME280;62796;42.654;23.316;2023-03-21T13:29:32;94110.47;;;19.96;24.90
29197;BME280;62796;42.654;23.316;2023-03-21T13:32:07;94100.94;;;19.99;24.86
29197;BME280;62796;42.654;23.316;2023-03-21T13:34:33;94099.06;;;20.02;24.53
29197;BME280;62796;42.654;23.316;2023-03-21T13:37:00;94094.78;;;20.01;24.52
29197;BME280;62796;42.654;23.316;2023-03-21T13:39:27;94100.94;;;19.99;24.90
29197;BME280;62796;42.654;23.316;2023-03-21T13:41:53;94101.34;;;20.03;24.57
29197;BME280;62796;42.654;23.316;2023-03-21T13:44:30;94096.63;;;19.98;24.80
29197;BME280;62796;42.654;23.316;2023-03-21T13:47:02;94093.63;;;19.96;24.82
29197;BME280;62796;42.654;23.316;2023-03-21T13:49:34;94092.09;;;19.95;24.97
29197;BME280;62796;42.654;23.316;2023-03-21T13:54:52;94087.63;;;19.92;25.14
29197;BME280;62796;42.654;23.316;2023-03-21T13:59:45;94081.03;;;19.82;25.94
29197;BME280;62796;42.654;23.316;2023-03-21T14:04:39;94090.38;;;19.77;26.44
29197;BME280;62796;42.654;23.316;2023-03-21T14:07:22;94081.16;;;19.69;26.95
29197;BME280;62796;42.654;23.316;2023-03-21T14:09:54;94085.09;;;19.66;26.91
29197;BME280;62796;42.654;23.316;2023-03-21T14:12:24;94076.41;;;19.56;27.01
29197;BME280;62796;42.654;23.316;2023-03-21T14:14:57;94081.31;;;19.56;26.91
29197;BME280;62796;42.654;23.316;2023-03-21T14:17:34;94067.78;;;19.47;26.80
29197;BME280;62796;42.654;23.316;2023-03-21T14:20:07;94073.78;;;19.51;26.83
29197;BME280;62796;42.654;23.316;2023-03-21T14:22:38;94068.34;;;19.45;27.13
29197;BME280;62796;42.654;23.316;2023-03-21T14:25:07;94076.00;;;19.45;27.31
29197;BME280;62796;42.654;23.316;2023-03-21T14:27:35;94070.00;;;19.41;27.77
29197;BME280;62796;42.654;23.316;2023-03-21T14:30:03;94073.56;;;19.41;28.31
29197;BME280;62796;42.654;23.316;2023-03-21T14:32:29;94061.59;;;19.12;29.17
29197;BME280;62796;42.654;23.316;2023-03-21T14:34:58;94077.34;;;18.87;29.89